Historyczne dane pomiarowe

Dodano dane terminowe – wersja testowa.

Dane z okresu 1951-2019

Wersja bazy: 1.34 [2019-03-16, lista zmian], aktualizacja planowana na 2019-04-15

Dane meteo z obszaru Polski uzyskane na podstawie danych udostępnionych przez Instytut Meteorologii i Gospodarki Wodnej – Państwowy Instytut Badawczy.

 

Wybierz Datę:    

       

TemperaturaWilgotnośćWiatrCiśnienieOpadyŚniegCzas trwania zjawisk
 Stacja t tx tn tng RH VA  wxwx mslp ppp RRR   cm mm wxwxwxwxwxwxwx
1975-07-16 20.0 24.5 12.3- 45.3- 5.7 4.7---- 0.0------------
1975-07-17 18.2 22.2 14.7- 62.3- 8.0 4.3---- 0.0------------
1975-07-18 19.2 25.0 8.3- 48.8- 5.0 2.3---- 0.0------------
1975-07-19 17.0 23.5 11.2- 82.0- 8.0 2.7---- 33.1------------
1975-07-20 20.0 25.0 16.4- 67.5- 8.0 4.0---- 0.0------------
1975-07-21 20.8 26.2 14.7- 57.8- 3.7 1.7---- 0.0------------
1975-07-22 18.5 24.5 12.2- 70.3- 8.0 2.0---- 0.8------------
1975-07-23 19.1 25.1 11.8- 60.8- 8.0 2.7---- 0.0------------
1975-07-24 20.2 29.0 12.9- 73.0- 7.0 3.7---- 3.4------------
1975-07-25 16.4 20.1 11.2- 74.3- 7.0 2.0---- 1.9------------
1975-07-26 15.1 19.3 10.9- 63.8- 7.7 4.0---- 3.4------------
1975-07-27 14.6 15.9 12.8- 88.0- 8.0 5.7---- 12.2------------
1975-07-28 16.7 20.5 12.8- 79.5- 8.0 2.3---- 0.0------------
1975-07-29 20.1 26.7 13.4- 57.0- 1.3 3.3---- 0.0------------
1975-07-30 18.3 23.6 14.0- 74.3- 6.3 3.0---- 0.5------------
1975-07-31 19.4 25.0 13.3- 72.0- 8.0 1.0---- 0.0------------
1975-08-01 18.2 24.5 11.4- 67.3- 6.0 1.7---- 11.4------------
1975-08-02 16.3 20.9 10.6- 74.3- 7.0 4.0---- 0.0------------
1975-08-03 19.4 24.0 15.9- 66.3- 4.7 3.0---- 0.0------------
1975-08-04 19.2 26.7 12.0- 61.8- 3.0 1.3---- 0.0------------
1975-08-05 19.5 26.7 12.5- 59.5- 2.7 2.7---- 0.0------------
1975-08-06 20.6 27.7 12.2- 61.5- 4.0 3.7---- 0.0------------
1975-08-07 23.2 30.2 16.4- 53.0- 2.3 3.0---- 0.0------------
1975-08-08 24.0 31.6 16.1- 46.0- 2.3 2.0---- 0.0------------
1975-08-09 23.7 32.4 13.3- 39.0- 1.3 2.7---- 0.0------------
1975-08-10 22.2 30.8 13.0- 53.0- 1.7 2.3---- 0.0------------
1975-08-11 23.1 30.9 14.6- 48.8- 1.0 1.7---- 0.0------------
1975-08-12 18.7 26.4 14.5- 59.0- 6.7 4.3---- 0.0------------
1975-08-13 14.3 19.7 6.6- 54.5- 0.0 2.7---- 0.0------------
1975-08-14 14.7 22.6 2.7- 48.8- 4.7 1.7---- 0.0------------
175.9 ms

 

Źródłem pochodzenia danych jest Instytut Meteorologii i Gospodarki Wodnej – Państwowy Instytut Badawczy. Dane Instytutu Meteorologii i Gospodarki Wodnej – Państwowego Instytutu Badawczego zostały przetworzone.

Dane źródłowe można odnaleźć na stronie https://dane.imgw.pl